Time;durP1;ratioP1;P1;durP2;ratioP2;P2;SDS_P1;SDS_P2;PMS_P1;PMS_P2;Temp;Humidity;BMP_temperature;BMP_pressure;BME280_temperature;BME280_humidity;BME280_pressure;Samples;Min_cycle;Max_cycle;Signal;HPM_P1;HPM_P2
2023/01/19 00:01:00;;;;;;;4.30;2.95;;;;;;;;;;4951375;28;20035;-79
2023/01/19 00:03:25;;;;;;;8.23;3.50;;;;;;;;;;4950844;28;20125;-80
2023/01/19 00:05:51;;;;;;;5.80;3.00;;;;;;;;;;4948392;28;20412;-80
2023/01/19 00:08:17;;;;;;;3.75;2.63;;;;;;;;;;4949149;28;20034;-80
2023/01/19 00:10:45;;;;;;;8.20;3.50;;;;;;;;;;4949679;28;20077;-80
2023/01/19 00:13:10;;;;;;;6.68;2.75;;;;;;;;;;4956027;28;20027;-79
2023/01/19 00:15:36;;;;;;;2.70;2.25;;;;;;;;;;4953785;28;20097;-80
2023/01/19 00:18:01;;;;;;;5.03;2.78;;;;;;;;;;4961423;28;20086;-80
2023/01/19 00:20:26;;;;;;;6.25;3.80;;;;;;;;;;4960666;28;20059;-79
2023/01/19 00:22:52;;;;;;;5.53;3.13;;;;;;;;;;4958010;28;20109;-80
2023/01/19 00:25:17;;;;;;;7.32;3.08;;;;;;;;;;4956042;28;20045;-81
2023/01/19 00:27:48;;;;;;;6.50;3.13;;;;;;;;;;4959089;28;20029;-80
2023/01/19 00:30:16;;;;;;;6.03;3.67;;;;;;;;;;4951663;28;20508;-80
2023/01/19 00:32:41;;;;;;;10.40;4.03;;;;;;;;;;4947561;28;20070;-80
2023/01/19 00:35:07;;;;;;;4.18;3.00;;;;;;;;;;4954681;28;20018;-80
2023/01/19 00:37:32;;;;;;;5.10;3.38;;;;;;;;;;4953164;28;20168;-79
2023/01/19 00:39:58;;;;;;;4.85;2.72;;;;;;;;;;4952527;28;21438;-81
2023/01/19 00:45:12;;;;;;;5.05;2.75;;;;;;;;;;4960595;28;20841;-82
2023/01/19 00:47:38;;;;;;;4.88;2.97;;;;;;;;;;4974057;28;20317;-80
2023/01/19 00:50:04;;;;;;;3.97;2.70;;;;;;;;;;4957782;28;20118;-81
2023/01/19 00:52:30;;;;;;;8.02;3.28;;;;;;;;;;4973145;28;20059;-80
2023/01/19 00:54:56;;;;;;;4.88;2.50;;;;;;;;;;4960062;28;20716;-80
2023/01/19 00:57:22;;;;;;;5.43;3.33;;;;;;;;;;4959555;28;20035;-80
2023/01/19 00:59:47;;;;;;;2.85;2.50;;;;;;;;;;4963428;28;20035;-80
2023/01/19 01:02:13;;;;;;;5.95;3.47;;;;;;;;;;4961292;28;20034;-80
2023/01/19 01:04:38;;;;;;;5.97;3.83;;;;;;;;;;4961401;28;20039;-80
2023/01/19 01:07:04;;;;;;;4.15;2.95;;;;;;;;;;4962106;28;20073;-80
2023/01/19 01:09:29;;;;;;;5.47;3.13;;;;;;;;;;4966129;28;20114;-80
2023/01/19 01:11:55;;;;;;;3.00;2.50;;;;;;;;;;4957991;28;20118;-81
2023/01/19 01:14:21;;;;;;;5.07;3.05;;;;;;;;;;4962818;28;20038;-79
2023/01/19 01:16:47;;;;;;;4.18;3.30;;;;;;;;;;4959113;28;20395;-80
2023/01/19 01:19:12;;;;;;;4.15;2.67;;;;;;;;;;4957187;28;20022;-80
2023/01/19 01:21:38;;;;;;;5.80;3.60;;;;;;;;;;4949283;28;20055;-80
2023/01/19 01:24:03;;;;;;;2.38;2.17;;;;;;;;;;4960112;28;20054;-80
2023/01/19 01:26:29;;;;;;;4.10;2.58;;;;;;;;;;4963273;28;20500;-80
2023/01/19 01:28:54;;;;;;;6.72;3.30;;;;;;;;;;4958198;28;20038;-80
2023/01/19 01:31:19;;;;;;;3.72;2.85;;;;;;;;;;4960421;28;20035;-81
2023/01/19 01:33:45;;;;;;;7.43;2.78;;;;;;;;;;4956952;28;20018;-81
2023/01/19 01:36:10;;;;;;;5.00;2.83;;;;;;;;;;4959807;28;20041;-80
2023/01/19 01:38:37;;;;;;;4.07;3.10;;;;;;;;;;4953142;28;20117;-80
2023/01/19 01:41:03;;;;;;;3.88;2.83;;;;;;;;;;4959271;28;20454;-80
2023/01/19 01:43:52;;;;;;;4.93;2.47;;;;;;;;;;4952622;28;20041;-80
2023/01/19 01:46:18;;;;;;;5.05;2.67;;;;;;;;;;4952775;28;20054;-80
2023/01/19 01:48:53;;;;;;;3.22;2.40;;;;;;;;;;4970706;28;20030;-80
2023/01/19 01:51:47;;;;;;;6.07;3.55;;;;;;;;;;4957030;28;20113;-80
2023/01/19 01:54:25;;;;;;;9.75;3.85;;;;;;;;;;4972388;28;20033;-80
2023/01/19 01:56:55;;;;;;;3.67;2.67;;;;;;;;;;4955334;28;20050;-80
2023/01/19 01:59:25;;;;;;;4.68;2.60;;;;;;;;;;4959742;28;20114;-80
2023/01/19 02:04:45;;;;;;;2.47;2.28;;;;;;;;;;4958368;28;20050;-81
2023/01/19 02:15:26;;;;;;;4.30;3.70;;;;;;;;;;4957057;28;20025;-81
2023/01/19 02:17:51;;;;;;;3.55;1.92;;;;;;;;;;4955815;28;20386;-81
2023/01/19 02:20:19;;;;;;;3.97;2.83;;;;;;;;;;4957302;28;20042;-80
2023/01/19 02:22:48;;;;;;;2.92;2.40;;;;;;;;;;4959943;28;20183;-81
2023/01/19 02:25:15;;;;;;;4.55;3.17;;;;;;;;;;4953091;28;20069;-81
2023/01/19 02:27:41;;;;;;;6.53;3.55;;;;;;;;;;4959102;28;20210;-81
2023/01/19 02:30:08;;;;;;;7.15;4.05;;;;;;;;;;4964272;28;20058;-80
2023/01/19 02:32:34;;;;;;;6.13;3.13;;;;;;;;;;4961787;28;20034;-80
2023/01/19 02:34:59;;;;;;;6.25;3.00;;;;;;;;;;4957100;28;20026;-80
2023/01/19 02:37:27;;;;;;;3.67;2.58;;;;;;;;;;4960523;28;20035;-80
2023/01/19 02:39:57;;;;;;;4.47;3.45;;;;;;;;;;4956837;28;20027;-81
2023/01/19 02:42:28;;;;;;;7.68;3.22;;;;;;;;;;4951976;28;20539;-80
2023/01/19 02:44:55;;;;;;;4.40;3.10;;;;;;;;;;4955944;28;20019;-80
2023/01/19 02:47:21;;;;;;;5.30;3.80;;;;;;;;;;4959462;28;20488;-80
2023/01/19 02:49:59;;;;;;;6.45;3.72;;;;;;;;;;4955198;28;20076;-80
2023/01/19 02:52:26;;;;;;;5.85;3.15;;;;;;;;;;4955356;28;20042;-80
2023/01/19 02:55:14;;;;;;;4.05;3.42;;;;;;;;;;4953892;28;20019;-80
2023/01/19 02:58:01;;;;;;;6.28;4.25;;;;;;;;;;4952811;28;20030;-81
2023/01/19 03:00:35;;;;;;;4.05;2.88;;;;;;;;;;4952535;28;20037;-80
2023/01/19 03:03:29;;;;;;;4.20;2.65;;;;;;;;;;4958590;28;20042;-80
2023/01/19 03:06:08;;;;;;;3.45;2.80;;;;;;;;;;4951294;28;20057;-80
2023/01/19 03:08:39;;;;;;;7.00;3.75;;;;;;;;;;4952923;28;20241;-80
2023/01/19 03:11:08;;;;;;;4.10;3.03;;;;;;;;;;4953999;28;20031;-80
2023/01/19 03:13:40;;;;;;;4.15;2.17;;;;;;;;;;4955993;28;20126;-80
2023/01/19 03:16:24;;;;;;;5.38;2.78;;;;;;;;;;4961065;28;20030;-80
2023/01/19 03:18:57;;;;;;;6.25;2.92;;;;;;;;;;4956289;28;20033;-80
2023/01/19 03:21:26;;;;;;;4.43;2.80;;;;;;;;;;4958646;28;20046;-80
2023/01/19 03:23:54;;;;;;;3.55;3.22;;;;;;;;;;4959724;28;20027;-80
2023/01/19 03:26:30;;;;;;;4.97;3.75;;;;;;;;;;4969301;28;20054;-80
2023/01/19 03:29:01;;;;;;;4.78;3.20;;;;;;;;;;4956206;28;20034;-81
2023/01/19 03:31:29;;;;;;;2.63;2.40;;;;;;;;;;4959732;28;22664;-80
2023/01/19 03:33:59;;;;;;;7.32;3.25;;;;;;;;;;4960639;28;20039;-80
2023/01/19 03:36:30;;;;;;;3.88;2.63;;;;;;;;;;4957899;28;20030;-80
2023/01/19 03:38:58;;;;;;;3.58;3.28;;;;;;;;;;4956565;28;20069;-79
2023/01/19 03:41:26;;;;;;;4.68;3.53;;;;;;;;;;4956746;28;20050;-80
2023/01/19 03:43:54;;;;;;;6.72;4.18;;;;;;;;;;4969624;28;20027;-80
2023/01/19 03:46:21;;;;;;;5.90;2.67;;;;;;;;;;4953855;28;20031;-80
2023/01/19 03:48:47;;;;;;;5.82;3.10;;;;;;;;;;4956125;28;20387;-80
2023/01/19 03:51:13;;;;;;;4.30;2.63;;;;;;;;;;4952096;28;20026;-80
2023/01/19 03:53:40;;;;;;;5.78;3.42;;;;;;;;;;4953293;28;20248;-80
2023/01/19 03:56:08;;;;;;;4.85;3.30;;;;;;;;;;4946441;28;20050;-80
2023/01/19 03:58:34;;;;;;;3.70;2.72;;;;;;;;;;4957780;28;20037;-80
2023/01/19 04:01:00;;;;;;;3.92;2.80;;;;;;;;;;4958583;28;21316;-79
2023/01/19 04:03:26;;;;;;;4.38;3.60;;;;;;;;;;4958819;28;20081;-80
2023/01/19 04:05:51;;;;;;;6.95;3.58;;;;;;;;;;4960849;28;20022;-80
2023/01/19 04:08:16;;;;;;;4.75;2.85;;;;;;;;;;4961331;28;20034;-80
2023/01/19 04:10:42;;;;;;;3.83;3.45;;;;;;;;;;4960409;28;20514;-80
2023/01/19 04:13:07;;;;;;;4.93;3.40;;;;;;;;;;4977989;28;20031;-80
2023/01/19 04:15:33;;;;;;;4.63;2.92;;;;;;;;;;4960211;28;20504;-79
2023/01/19 04:17:59;;;;;;;10.60;3.75;;;;;;;;;;4957356;28;20038;-80
2023/01/19 04:20:27;;;;;;;6.30;3.60;;;;;;;;;;4958627;28;20039;-81
2023/01/19 04:22:53;;;;;;;4.97;2.88;;;;;;;;;;4978377;28;20023;-80
2023/01/19 04:25:18;;;;;;;3.90;2.60;;;;;;;;;;4957142;28;20035;-80
2023/01/19 04:27:44;;;;;;;5.00;3.25;;;;;;;;;;4959159;28;20128;-80
2023/01/19 04:30:10;;;;;;;5.93;3.63;;;;;;;;;;4948234;28;20095;-80
2023/01/19 04:32:35;;;;;;;4.80;2.92;;;;;;;;;;4953785;28;20040;-81
2023/01/19 04:35:00;;;;;;;4.95;2.67;;;;;;;;;;4953147;28;20021;-80
2023/01/19 04:37:26;;;;;;;4.75;3.45;;;;;;;;;;4959849;28;20053;-80
2023/01/19 04:39:51;;;;;;;3.30;2.90;;;;;;;;;;4959815;28;20030;-80
2023/01/19 04:42:17;;;;;;;5.18;3.05;;;;;;;;;;4953767;28;20045;-80
2023/01/19 04:44:42;;;;;;;3.83;3.03;;;;;;;;;;4954364;28;20035;-80
2023/01/19 04:47:08;;;;;;;2.67;2.28;;;;;;;;;;4958230;28;20089;-80
2023/01/19 04:49:36;;;;;;;4.25;3.08;;;;;;;;;;4956392;28;20512;-80
2023/01/19 04:52:02;;;;;;;5.03;3.30;;;;;;;;;;4957919;28;20054;-80
2023/01/19 04:54:28;;;;;;;2.63;2.30;;;;;;;;;;4976316;28;20015;-80
2023/01/19 04:56:53;;;;;;;5.82;3.33;;;;;;;;;;4957459;28;22160;-80
2023/01/19 04:59:19;;;;;;;6.10;3.33;;;;;;;;;;4961349;28;20027;-80
2023/01/19 05:01:44;;;;;;;4.43;3.28;;;;;;;;;;4959006;28;20031;-80
2023/01/19 05:04:09;;;;;;;4.45;3.28;;;;;;;;;;4958522;28;20029;-80
2023/01/19 05:06:36;;;;;;;4.03;2.97;;;;;;;;;;4957676;28;20030;-80
2023/01/19 05:09:02;;;;;;;5.38;2.20;;;;;;;;;;4955623;28;21316;-80
2023/01/19 05:11:27;;;;;;;3.45;2.55;;;;;;;;;;4953423;28;20027;-80
2023/01/19 05:13:52;;;;;;;5.43;2.75;;;;;;;;;;4954823;28;20020;-80
2023/01/19 05:16:18;;;;;;;3.72;2.72;;;;;;;;;;4951544;28;20030;-80
2023/01/19 05:18:43;;;;;;;3.30;2.55;;;;;;;;;;4962862;28;20038;-79
2023/01/19 05:21:08;;;;;;;5.07;3.03;;;;;;;;;;4958428;28;20031;-80
2023/01/19 05:23:37;;;;;;;3.47;3.13;;;;;;;;;;4955157;28;20433;-80
2023/01/19 05:26:02;;;;;;;4.28;2.75;;;;;;;;;;4958011;28;20031;-80
2023/01/19 05:28:29;;;;;;;3.15;2.85;;;;;;;;;;4954027;28;20042;-80
2023/01/19 05:30:54;;;;;;;3.78;2.55;;;;;;;;;;4956668;28;20038;-80
2023/01/19 05:33:21;;;;;;;4.13;3.15;;;;;;;;;;4957665;28;20034;-80
2023/01/19 05:35:51;;;;;;;6.70;3.85;;;;;;;;;;4950943;28;20034;-80
2023/01/19 05:38:17;;;;;;;3.17;2.90;;;;;;;;;;4953626;28;20054;-81
2023/01/19 05:40:42;;;;;;;5.65;3.70;;;;;;;;;;4955488;28;20058;-81
2023/01/19 05:43:07;;;;;;;7.60;3.53;;;;;;;;;;4958126;28;20473;-80
2023/01/19 05:45:33;;;;;;;5.57;3.72;;;;;;;;;;4959176;28;20070;-81
2023/01/19 05:47:59;;;;;;;8.00;3.50;;;;;;;;;;4956590;28;20070;-80
2023/01/19 05:50:24;;;;;;;5.07;3.15;;;;;;;;;;4960993;28;20047;-81
2023/01/19 05:52:52;;;;;;;7.50;2.95;;;;;;;;;;4958084;28;20038;-80
2023/01/19 05:55:20;;;;;;;3.60;2.90;;;;;;;;;;4959804;28;20030;-80
2023/01/19 05:57:46;;;;;;;2.78;2.33;;;;;;;;;;4964274;28;20120;-80
2023/01/19 06:00:12;;;;;;;4.97;3.28;;;;;;;;;;4962775;28;20438;-80
2023/01/19 06:03:00;;;;;;;16.13;6.85;;;;;;;;;;4960942;28;20055;-80
2023/01/19 06:05:45;;;;;;;38.00;16.42;;;;;;;;;;4945139;28;20043;-80
2023/01/19 06:09:06;;;;;;;23.02;10.63;;;;;;;;;;4958554;28;20405;-81
2023/01/19 06:11:32;;;;;;;12.13;5.65;;;;;;;;;;4959137;28;20090;-80
2023/01/19 06:13:57;;;;;;;17.48;6.00;;;;;;;;;;4961613;28;20121;-80
2023/01/19 06:16:22;;;;;;;13.85;6.43;;;;;;;;;;4960345;28;20448;-80
2023/01/19 06:18:51;;;;;;;16.08;5.32;;;;;;;;;;4960413;28;20034;-79
2023/01/19 06:21:24;;;;;;;13.90;6.03;;;;;;;;;;4956219;28;20039;-80
2023/01/19 06:23:49;;;;;;;11.88;5.15;;;;;;;;;;4958023;28;20039;-80
2023/01/19 06:26:15;;;;;;;4.97;2.70;;;;;;;;;;4959605;28;20034;-80
2023/01/19 06:28:40;;;;;;;7.18;3.35;;;;;;;;;;4964913;28;20068;-80
2023/01/19 06:31:05;;;;;;;8.13;3.72;;;;;;;;;;4967923;28;20078;-80
2023/01/19 06:33:31;;;;;;;5.75;3.08;;;;;;;;;;4968019;28;20597;-79
2023/01/19 06:35:56;;;;;;;4.85;3.03;;;;;;;;;;4970344;28;20023;-80
2023/01/19 06:43:30;;;;;;;8.02;3.42;;;;;;;;;;4971336;28;20046;-78
2023/01/19 06:45:56;;;;;;;7.55;3.63;;;;;;;;;;4957419;28;20030;-79
2023/01/19 06:48:22;;;;;;;5.47;3.08;;;;;;;;;;4979306;28;20081;-78
2023/01/19 06:50:47;;;;;;;5.03;2.80;;;;;;;;;;4977989;28;20031;-78
2023/01/19 06:53:15;;;;;;;4.57;3.05;;;;;;;;;;4976243;28;20038;-78
2023/01/19 06:55:41;;;;;;;6.88;4.18;;;;;;;;;;4971310;28;20029;-79
2023/01/19 06:58:07;;;;;;;3.00;2.67;;;;;;;;;;4987877;28;20019;-78
2023/01/19 07:00:56;;;;;;;8.85;3.70;;;;;;;;;;4972419;28;20519;-79
2023/01/19 07:07:00;;;;;;;2.42;2.00;;;;;;;;;;4927673;28;20121;-80
2023/01/19 07:09:26;;;;;;;4.05;3.00;;;;;;;;;;4964918;28;20157;-79
2023/01/19 07:11:53;;;;;;;3.33;2.85;;;;;;;;;;4957692;28;20027;-78
2023/01/19 07:14:19;;;;;;;4.75;3.25;;;;;;;;;;4957255;28;20097;-78
2023/01/19 07:16:45;;;;;;;6.57;2.70;;;;;;;;;;4942130;28;20201;-79
2023/01/19 07:19:10;;;;;;;8.75;3.75;;;;;;;;;;4951081;28;20591;-80
2023/01/19 07:21:36;;;;;;;7.82;3.63;;;;;;;;;;4967302;28;20341;-79
2023/01/19 07:24:01;;;;;;;9.65;2.08;;;;;;;;;;4955787;28;20034;-78
2023/01/19 07:26:26;;;;;;;4.28;2.50;;;;;;;;;;4967781;28;20110;-81
2023/01/19 07:28:52;;;;;;;5.88;3.13;;;;;;;;;;4972303;28;20393;-80
2023/01/19 07:31:22;;;;;;;6.95;3.20;;;;;;;;;;4971328;28;20269;-79
2023/01/19 07:33:48;;;;;;;4.10;2.80;;;;;;;;;;4977934;28;20061;-80
2023/01/19 07:36:14;;;;;;;5.05;3.38;;;;;;;;;;4989372;28;20074;-79
2023/01/19 07:38:45;;;;;;;4.70;2.90;;;;;;;;;;4972292;28;20694;-82
2023/01/19 07:41:11;;;;;;;4.38;3.03;;;;;;;;;;4970592;28;20019;-79
2023/01/19 07:43:36;;;;;;;4.15;2.88;;;;;;;;;;4970371;28;20035;-80
2023/01/19 07:46:03;;;;;;;4.47;2.47;;;;;;;;;;4974832;28;20030;-80
2023/01/19 07:48:29;;;;;;;3.83;2.90;;;;;;;;;;4965870;28;20074;-79
2023/01/19 07:51:07;;;;;;;3.33;2.97;;;;;;;;;;4967619;28;20030;-79
2023/01/19 07:53:32;;;;;;;3.83;3.05;;;;;;;;;;4974949;28;20105;-81
2023/01/19 07:55:58;;;;;;;3.20;2.67;;;;;;;;;;4968886;28;20363;-80
2023/01/19 07:58:24;;;;;;;2.97;2.55;;;;;;;;;;4973453;28;20018;-83
2023/01/19 08:00:49;;;;;;;4.07;3.40;;;;;;;;;;4968786;28;20453;-79
2023/01/19 08:03:17;;;;;;;4.03;3.63;;;;;;;;;;4956014;28;20158;-82
2023/01/19 08:05:44;;;;;;;9.75;3.97;;;;;;;;;;4959806;28;20039;-80
2023/01/19 08:08:11;;;;;;;7.32;3.75;;;;;;;;;;4965293;28;20014;-80
2023/01/19 08:10:37;;;;;;;4.85;3.25;;;;;;;;;;4964522;28;20389;-80
2023/01/19 08:13:05;;;;;;;9.63;5.18;;;;;;;;;;4975412;28;20564;-80
2023/01/19 08:15:30;;;;;;;8.10;4.68;;;;;;;;;;4961505;28;20054;-80
2023/01/19 08:18:00;;;;;;;6.40;4.28;;;;;;;;;;4959248;28;20035;-80
2023/01/19 08:20:27;;;;;;;11.48;4.93;;;;;;;;;;4967263;28;20061;-80
2023/01/19 08:22:59;;;;;;;7.55;4.82;;;;;;;;;;4965759;28;20039;-80
2023/01/19 08:25:36;;;;;;;13.27;5.53;;;;;;;;;;4966313;28;20029;-80
2023/01/19 08:28:09;;;;;;;5.05;2.95;;;;;;;;;;4961103;28;20035;-80
2023/01/19 08:30:34;;;;;;;4.75;3.08;;;;;;;;;;4961996;28;20026;-80
2023/01/19 08:33:03;;;;;;;4.43;2.72;;;;;;;;;;4960986;28;20394;-79
2023/01/19 08:35:33;;;;;;;4.72;2.72;;;;;;;;;;4965398;28;20657;-80
2023/01/19 08:38:04;;;;;;;3.90;2.28;;;;;;;;;;4966036;28;20026;-80
2023/01/19 08:40:35;;;;;;;2.95;2.60;;;;;;;;;;4975751;28;20034;-80
2023/01/19 08:43:08;;;;;;;5.18;2.58;;;;;;;;;;4968233;28;20030;-80
2023/01/19 08:45:35;;;;;;;2.10;1.90;;;;;;;;;;4962838;28;20035;-80
2023/01/19 08:48:01;;;;;;;2.83;2.30;;;;;;;;;;4963653;28;20030;-81
2023/01/19 08:50:29;;;;;;;3.88;2.60;;;;;;;;;;4958699;28;20026;-82
2023/01/19 08:52:59;;;;;;;3.53;2.05;;;;;;;;;;4978730;28;20085;-82
2023/01/19 08:55:25;;;;;;;4.53;2.80;;;;;;;;;;4962299;28;20152;-81
2023/01/19 08:57:51;;;;;;;3.33;2.25;;;;;;;;;;4960343;28;20115;-79
2023/01/19 09:00:18;;;;;;;3.22;2.42;;;;;;;;;;4963949;28;20046;-78
2023/01/19 09:02:43;;;;;;;3.20;2.33;;;;;;;;;;4958923;28;20445;-79
2023/01/19 09:05:09;;;;;;;5.63;3.08;;;;;;;;;;4964449;28;20030;-78
2023/01/19 09:07:35;;;;;;;6.13;3.08;;;;;;;;;;4969347;28;20676;-80
2023/01/19 09:10:02;;;;;;;5.13;2.83;;;;;;;;;;4966238;28;20030;-83
2023/01/19 09:12:27;;;;;;;4.00;2.25;;;;;;;;;;4966471;28;20027;-79
2023/01/19 09:14:53;;;;;;;6.10;2.80;;;;;;;;;;4981195;28;20041;-80
2023/01/19 09:17:18;;;;;;;3.88;2.80;;;;;;;;;;4965895;28;20113;-79
2023/01/19 09:19:43;;;;;;;3.63;2.35;;;;;;;;;;4968625;28;20401;-80
2023/01/19 09:22:09;;;;;;;4.47;2.28;;;;;;;;;;4968244;28;20090;-80
2023/01/19 09:24:35;;;;;;;3.78;2.35;;;;;;;;;;4968503;28;20030;-79
2023/01/19 09:27:01;;;;;;;5.78;2.33;;;;;;;;;;4966405;28;20018;-80
2023/01/19 09:29:26;;;;;;;6.53;2.60;;;;;;;;;;4964911;28;20027;-82
2023/01/19 09:31:51;;;;;;;4.22;2.22;;;;;;;;;;4965122;28;20034;-81
2023/01/19 09:34:16;;;;;;;3.08;2.60;;;;;;;;;;4960363;28;20034;-78
2023/01/19 09:36:42;;;;;;;3.72;2.50;;;;;;;;;;4965886;28;20027;-78
2023/01/19 09:39:08;;;;;;;4.80;1.65;;;;;;;;;;4964606;28;20027;-80
2023/01/19 09:41:37;;;;;;;10.25;2.95;;;;;;;;;;4966324;28;20026;-79
2023/01/19 09:44:03;;;;;;;2.65;2.25;;;;;;;;;;4967656;28;20095;-79
2023/01/19 09:46:41;;;;;;;1.13;1.13;;;;;;;;;;4964175;28;20031;-80
2023/01/19 09:49:13;;;;;;;2.92;2.45;;;;;;;;;;4967573;28;20027;-80
2023/01/19 09:51:42;;;;;;;4.47;2.38;;;;;;;;;;4966504;28;20033;-79
2023/01/19 09:54:20;;;;;;;3.00;2.10;;;;;;;;;;4966634;28;20030;-78
2023/01/19 09:56:48;;;;;;;6.50;2.45;;;;;;;;;;4964197;28;20046;-80
2023/01/19 09:59:23;;;;;;;2.28;2.10;;;;;;;;;;4967152;28;20019;-78
2023/01/19 10:02:10;;;;;;;3.88;2.72;;;;;;;;;;4968827;28;20039;-80
2023/01/19 10:04:45;;;;;;;2.30;2.10;;;;;;;;;;4963447;28;20035;-81
2023/01/19 10:07:28;;;;;;;4.30;1.88;;;;;;;;;;4967362;28;20034;-79
2023/01/19 10:10:11;;;;;;;4.88;2.72;;;;;;;;;;4962062;28;20035;-81
2023/01/19 10:12:42;;;;;;;13.82;3.13;;;;;;;;;;4966525;28;20109;-81
2023/01/19 10:15:31;;;;;;;3.22;2.53;;;;;;;;;;4968215;28;20033;-80
2023/01/19 10:18:05;;;;;;;3.92;2.30;;;;;;;;;;4965697;28;20039;-80
2023/01/19 10:20:42;;;;;;;1.95;1.83;;;;;;;;;;4967685;28;20502;-79
2023/01/19 10:23:19;;;;;;;2.30;2.10;;;;;;;;;;4958933;28;20046;-80
2023/01/19 10:25:45;;;;;;;5.70;2.25;;;;;;;;;;4959116;28;21858;-81
2023/01/19 10:28:13;;;;;;;4.53;2.00;;;;;;;;;;4963041;28;20090;-80
2023/01/19 10:30:41;;;;;;;2.03;1.83;;;;;;;;;;4961334;28;20038;-81
2023/01/19 10:33:10;;;;;;;3.80;2.65;;;;;;;;;;4964454;28;20030;-81
2023/01/19 10:35:35;;;;;;;3.63;2.30;;;;;;;;;;4962872;28;20026;-79
2023/01/19 10:38:01;;;;;;;5.03;2.45;;;;;;;;;;4962825;28;20045;-80
2023/01/19 10:40:41;;;;;;;3.78;2.60;;;;;;;;;;4988323;28;20073;-81
2023/01/19 10:43:36;;;;;;;4.47;3.08;;;;;;;;;;4964135;28;20539;-80
2023/01/19 10:46:18;;;;;;;4.22;1.98;;;;;;;;;;4964487;28;21319;-80
2023/01/19 10:48:48;;;;;;;5.60;1.85;;;;;;;;;;4962428;28;20559;-80
2023/01/19 10:51:13;;;;;;;6.65;2.38;;;;;;;;;;4965215;28;20129;-80
2023/01/19 10:53:41;;;;;;;3.33;2.58;;;;;;;;;;4962461;28;20026;-82
2023/01/19 10:56:22;;;;;;;1.90;1.77;;;;;;;;;;4983256;28;20030;-81
2023/01/19 10:58:47;;;;;;;2.22;1.92;;;;;;;;;;4962548;28;20086;-81
2023/01/19 11:01:24;;;;;;;2.22;2.03;;;;;;;;;;4963823;28;20505;-80
2023/01/19 11:03:49;;;;;;;4.10;2.00;;;;;;;;;;4960051;28;20034;-80
2023/01/19 11:06:25;;;;;;;3.25;2.17;;;;;;;;;;4959360;28;20027;-81
2023/01/19 11:08:52;;;;;;;3.72;1.70;;;;;;;;;;4960040;28;20042;-81
2023/01/19 11:11:19;;;;;;;3.45;2.50;;;;;;;;;;4970860;28;20031;-81
2023/01/19 11:14:09;;;;;;;2.58;2.13;;;;;;;;;;4967375;28;20034;-82
2023/01/19 11:16:37;;;;;;;6.20;2.60;;;;;;;;;;4962947;28;20039;-82
2023/01/19 11:19:03;;;;;;;9.98;2.95;;;;;;;;;;4963472;28;20041;-82
2023/01/19 11:21:31;;;;;;;3.70;2.03;;;;;;;;;;4967150;28;20023;-81
2023/01/19 11:24:04;;;;;;;4.72;1.77;;;;;;;;;;4958001;28;20034;-82
2023/01/19 11:27:10;;;;;;;3.00;2.40;;;;;;;;;;4964509;28;20125;-82
2023/01/19 11:29:36;;;;;;;7.18;1.95;;;;;;;;;;4981879;28;20457;-82
2023/01/19 11:32:19;;;;;;;3.03;2.05;;;;;;;;;;4962699;28;20058;-82
2023/01/19 11:34:44;;;;;;;8.27;2.60;;;;;;;;;;4966066;28;20031;-82
2023/01/19 11:37:28;;;;;;;6.50;2.78;;;;;;;;;;4958601;28;20116;-82
2023/01/19 11:39:59;;;;;;;8.55;2.58;;;;;;;;;;4967187;28;20559;-82
2023/01/19 11:42:25;;;;;;;4.97;2.28;;;;;;;;;;4970665;28;20035;-85
2023/01/19 11:44:56;;;;;;;6.20;2.05;;;;;;;;;;4968867;28;20046;-83
2023/01/19 11:47:27;;;;;;;3.33;2.22;;;;;;;;;;4968015;28;20036;-85
2023/01/19 11:49:52;;;;;;;3.42;2.25;;;;;;;;;;4968368;28;20050;-85
2023/01/19 11:52:33;;;;;;;2.40;2.10;;;;;;;;;;4986078;28;20039;-83
2023/01/19 11:55:06;;;;;;;3.88;2.42;;;;;;;;;;4968384;28;20026;-85
2023/01/19 11:57:32;;;;;;;5.25;2.55;;;;;;;;;;4981720;28;20027;-84
2023/01/19 12:00:02;;;;;;;4.10;2.50;;;;;;;;;;4965756;28;20043;-83
2023/01/19 12:02:40;;;;;;;1.67;1.58;;;;;;;;;;4975181;28;20035;-84
2023/01/19 12:05:10;;;;;;;2.60;2.40;;;;;;;;;;4964420;28;20042;-83
2023/01/19 12:07:37;;;;;;;3.78;2.40;;;;;;;;;;4966717;28;20236;-84
2023/01/19 12:10:29;;;;;;;2.97;2.00;;;;;;;;;;4963641;28;20109;-86
2023/01/19 12:12:56;;;;;;;3.63;2.80;;;;;;;;;;4964505;28;20027;-89
2023/01/19 12:15:43;;;;;;;2.67;2.25;;;;;;;;;;4967728;28;20027;-85
2023/01/19 12:18:19;;;;;;;8.60;4.90;;;;;;;;;;4966484;28;20026;-84
2023/01/19 12:20:51;;;;;;;23.15;9.05;;;;;;;;;;4960787;28;20047;-87
2023/01/19 12:23:35;;;;;;;13.13;5.38;;;;;;;;;;4974211;28;20054;-84
2023/01/19 12:26:40;;;;;;;4.07;2.55;;;;;;;;;;4979519;28;20114;-82
2023/01/19 12:29:37;;;;;;;3.58;2.03;;;;;;;;;;4976479;28;20063;-82
2023/01/19 12:32:18;;;;;;;2.30;2.08;;;;;;;;;;4965452;28;20038;-84
2023/01/19 12:34:50;;;;;;;3.65;2.20;;;;;;;;;;4964739;28;20095;-83
2023/01/19 12:37:24;;;;;;;1.65;1.55;;;;;;;;;;4963100;28;20133;-84
2023/01/19 12:39:50;;;;;;;2.53;2.00;;;;;;;;;;4964107;28;20027;-82
2023/01/19 12:42:18;;;;;;;7.15;2.30;;;;;;;;;;4964134;28;20138;-82
2023/01/19 12:44:45;;;;;;;4.13;2.33;;;;;;;;;;4962576;28;20573;-82
2023/01/19 12:47:41;;;;;;;3.08;1.98;;;;;;;;;;4964101;28;20064;-82
2023/01/19 12:50:48;;;;;;;2.50;2.30;;;;;;;;;;4963950;28;20942;-82
2023/01/19 12:53:20;;;;;;;3.30;2.63;;;;;;;;;;4967382;28;20035;-84
2023/01/19 12:55:58;;;;;;;5.20;2.47;;;;;;;;;;4966510;28;20101;-81
2023/01/19 12:58:24;;;;;;;4.25;3.15;;;;;;;;;;4962670;28;20023;-82
2023/01/19 13:01:14;;;;;;;5.57;2.90;;;;;;;;;;4964175;28;20445;-83
2023/01/19 13:04:02;;;;;;;6.07;3.58;;;;;;;;;;4963259;28;20041;-81
2023/01/19 13:07:19;;;;;;;4.15;2.40;;;;;;;;;;4956157;28;20038;-84
2023/01/19 13:09:44;;;;;;;5.28;3.75;;;;;;;;;;4931263;28;20047;-84
2023/01/19 13:12:12;;;;;;;5.88;2.70;;;;;;;;;;4948627;28;20097;-82
2023/01/19 13:14:38;;;;;;;8.50;4.13;;;;;;;;;;4952552;28;20039;-84
2023/01/19 13:17:15;;;;;;;4.70;3.13;;;;;;;;;;4969084;28;20042;-83
2023/01/19 13:19:46;;;;;;;4.15;2.45;;;;;;;;;;4953099;28;20034;-83
2023/01/19 13:22:48;;;;;;;2.67;2.35;;;;;;;;;;4960243;28;20023;-83
2023/01/19 13:25:26;;;;;;;2.28;2.08;;;;;;;;;;4977881;28;20074;-83
2023/01/19 13:27:51;;;;;;;4.13;2.10;;;;;;;;;;4961114;28;20124;-82
2023/01/19 13:30:20;;;;;;;2.63;2.25;;;;;;;;;;4977856;28;21027;-83
2023/01/19 13:32:45;;;;;;;5.63;3.03;;;;;;;;;;4958647;28;20042;-83
2023/01/19 13:35:16;;;;;;;4.53;2.58;;;;;;;;;;4961574;28;20382;-83
2023/01/19 13:37:43;;;;;;;5.75;2.60;;;;;;;;;;4958651;28;20530;-83
2023/01/19 13:40:38;;;;;;;5.05;2.95;;;;;;;;;;4963068;28;20029;-83
2023/01/19 13:43:13;;;;;;;2.63;2.15;;;;;;;;;;4958950;28;20089;-83
2023/01/19 13:45:40;;;;;;;7.07;2.25;;;;;;;;;;4955776;28;20513;-83
2023/01/19 13:48:13;;;;;;;2.60;2.03;;;;;;;;;;4957933;28;20082;-82
2023/01/19 13:54:01;;;;;;;2.63;2.08;;;;;;;;;;4959725;28;20122;-83
2023/01/19 13:56:30;;;;;;;6.95;2.28;;;;;;;;;;4965033;28;20141;-84
2023/01/19 13:59:10;;;;;;;3.78;2.40;;;;;;;;;;4983540;28;20729;-84
2023/01/19 14:01:41;;;;;;;2.35;2.08;;;;;;;;;;4959718;28;20129;-82
2023/01/19 14:04:30;;;;;;;7.22;2.90;;;;;;;;;;4965639;28;20619;-82
2023/01/19 14:07:05;;;;;;;6.03;2.90;;;;;;;;;;4963900;28;20074;-83
2023/01/19 14:09:39;;;;;;;2.67;2.22;;;;;;;;;;4965420;28;20022;-82
2023/01/19 14:12:16;;;;;;;3.13;2.28;;;;;;;;;;4967805;28;20117;-84
2023/01/19 14:14:43;;;;;;;7.85;3.40;;;;;;;;;;4966361;28;20595;-83
2023/01/19 14:17:26;;;;;;;5.07;2.47;;;;;;;;;;4961716;28;20505;-83
2023/01/19 14:19:53;;;;;;;3.58;2.67;;;;;;;;;;4959048;28;20042;-83
2023/01/19 14:22:18;;;;;;;3.20;2.15;;;;;;;;;;4956867;28;20113;-84
2023/01/19 14:24:44;;;;;;;5.25;3.80;;;;;;;;;;4956512;28;20035;-83
2023/01/19 14:27:23;;;;;;;7.93;4.47;;;;;;;;;;4972155;28;20034;-83
2023/01/19 14:30:23;;;;;;;4.30;2.90;;;;;;;;;;4977843;28;20023;-85
2023/01/19 14:32:49;;;;;;;4.50;3.00;;;;;;;;;;4974187;28;20023;-83
2023/01/19 14:35:23;;;;;;;4.45;2.95;;;;;;;;;;4974106;28;20037;-83
2023/01/19 14:37:50;;;;;;;2.45;1.90;;;;;;;;;;4968092;28;20059;-83
2023/01/19 14:40:19;;;;;;;4.18;2.58;;;;;;;;;;4971726;28;20201;-83
2023/01/19 14:42:54;;;;;;;8.73;2.55;;;;;;;;;;4980997;28;20031;-83
2023/01/19 14:45:29;;;;;;;2.88;2.38;;;;;;;;;;4974264;28;20027;-83
2023/01/19 14:48:17;;;;;;;2.90;2.08;;;;;;;;;;4973538;28;20030;-83
2023/01/19 14:50:44;;;;;;;2.88;2.30;;;;;;;;;;4979227;28;20046;-83
2023/01/19 14:53:15;;;;;;;4.57;2.85;;;;;;;;;;4969985;28;20128;-83
2023/01/19 14:55:51;;;;;;;26.50;13.88;;;;;;;;;;4980913;28;20031;-83
2023/01/19 14:58:22;;;;;;;16.13;8.48;;;;;;;;;;4968916;28;20031;-83
2023/01/19 15:00:48;;;;;;;7.30;3.60;;;;;;;;;;4968910;28;20038;-83
2023/01/19 15:03:14;;;;;;;6.30;3.53;;;;;;;;;;4969852;28;20405;-83
2023/01/19 15:05:42;;;;;;;7.20;4.22;;;;;;;;;;4971348;28;20457;-83
2023/01/19 15:08:13;;;;;;;4.38;2.38;;;;;;;;;;4967620;28;20026;-83
2023/01/19 15:10:39;;;;;;;3.10;2.70;;;;;;;;;;4984211;28;20152;-83
2023/01/19 15:13:04;;;;;;;16.75;8.70;;;;;;;;;;4968834;28;20129;-83
2023/01/19 15:15:32;;;;;;;29.98;15.10;;;;;;;;;;4974366;28;20023;-82
2023/01/19 15:18:03;;;;;;;14.48;6.85;;;;;;;;;;4969937;28;20387;-82
2023/01/19 15:20:28;;;;;;;10.23;3.50;;;;;;;;;;4970933;28;20437;-82
2023/01/19 15:22:53;;;;;;;5.57;2.78;;;;;;;;;;4970825;28;20026;-82
2023/01/19 15:28:41;;;;;;;6.55;3.47;;;;;;;;;;4972169;28;20519;-82
2023/01/19 15:31:13;;;;;;;5.68;3.65;;;;;;;;;;4968309;28;20035;-82